Home > Products > Valid Products > TAF

000
FTUS43 KGRR 210500
TAFLAN
TAF
KLAN 210540Z 2106/2206 VRB04KT 6SM BR BKN035
     FM210700 VRB03KT P6SM -SN BKN025
     FM210900 19003KT 4SM BR OVC015
     FM211800 19007KT P6SM OVC050=



000
FTUS43 KGRR 210500
TAFGRR
TAF
KGRR 210540Z 2106/2206 VRB04KT 5SM -SN BR OVC015
     FM210800 20003KT 4SM BR OVC009
     FM211500 17008KT 4SM BR OVC015
     FM212100 16008KT P6SM OVC050=



000
FTUS43 KGRR 210500
TAFBTL
TAF
KBTL 210540Z 2106/2206 20004KT 4SM BR OVC015
     FM211000 VRB03KT 2SM BR OVC015
     FM211500 18006KT 5SM BR OVC015
     FM211800 18007KT P6SM OVC050=



000
FTUS43 KGRR 210500
TAFJXN
TAF
KJXN 210540Z 2106/2206 VRB04KT P6SM BKN100
     FM210700 VRB03KT P6SM -SN BKN025
     FM210900 19003KT 4SM BR OVC015
     FM211800 19007KT P6SM OVC050=



000
FTUS43 KGRR 210500
TAFLAN
TAF
KLAN 210540Z 2106/2206 VRB04KT P6SM BKN100
     FM210700 VRB03KT P6SM -SN BKN025
     FM210900 19003KT 4SM BR OVC015
     FM211800 19007KT P6SM OVC050=



000
FTUS43 KGRR 210500
TAFAZO
TAF
KAZO 210540Z 2106/2206 17005KT 4SM BR OVC025
     FM211000 VRB03KT 2SM BR OVC015
     FM211500 18006KT 5SM BR OVC015
     FM211800 18007KT P6SM OVC050=



000
FTUS43 KGRR 210500
TAFJXN
TAF
KJXN 210540Z 2106/2206 00000KT 6SM BR BKN050
     FM210700 VRB03KT P6SM -SN BKN025
     FM210900 19003KT 4SM BR OVC015
     FM211800 19007KT P6SM OVC050=



000
FTUS43 KGRR 210500
TAFMKG
TAF
KMKG 210540Z 2106/2206 13005KT 5SM -SN BR OVC015
     FM211000 20003KT 4SM BR OVC009
     FM211500 17008KT 4SM BR OVC015
     FM220000 15010KT 4SM HZ OVC025=



000
FTUS43 KGRR 210500
TAFBTL
TAF
KBTL 210540Z 2106/2206 VRB04KT 4SM BR OVC015
     FM211000 VRB03KT 2SM BR OVC015
     FM211500 18006KT 5SM BR OVC015
     FM211800 18007KT P6SM OVC050=



000
FTUS43 KGRR 210400 AAA
TAFGRR
TAF AMD
KGRR 210422Z 2104/2124 VRB04KT 5SM -SN BR OVC015
     FM210600 20003KT 4SM BR OVC009
     FM211500 17008KT 4SM BR OVC015=



000
FTUS43 KGRR 210400 AAA
TAFGRR
TAF AMD
KGRR 210422Z 2104/2124 VRB04KT 5SM -SN BR OVC015
     FM210600 20003KT 4SM BR OVC009
     FM211500 17008KT 4SM BR OVC015=



000
FTUS43 KGRR 210400 AAB
TAFJXN
TAF AMD
KJXN 210421Z 2104/2124 VRB03KT P6SM -SN BKN035
     FM210600 19003KT 4SM BR OVC015
     FM211800 19007KT P6SM OVC050=



000
FTUS43 KGRR 210400 AAB
TAFJXN
TAF AMD
KJXN 210421Z 2104/2124 VRB03KT P6SM -SN BKN035
     FM210600 19003KT 4SM BR OVC015
     FM211800 19007KT P6SM OVC050=



000
FTUS43 KGRR 210400 AAB
TAFLAN
TAF AMD
KLAN 210407Z 2104/2124 VRB04KT P6SM BKN070
     FM210600 VRB03KT 5SM -SN BKN025
     FM210900 19003KT 4SM BR OVC015
     FM211800 19007KT P6SM OVC050=



000
FTUS43 KGRR 210400 AAB
TAFLAN
TAF AMD
KLAN 210407Z 2104/2124 VRB04KT P6SM BKN070
     FM210600 VRB03KT 5SM -SN BKN025
     FM210900 19003KT 4SM BR OVC015
     FM211800 19007KT P6SM OVC050=



000
FTUS43 KGRR 210300 AAA
TAFBTL
TAF AMD
KBTL 210315Z 2103/2124 VRB04KT 6SM -SN HZ OVC015
      TEMPO 2103/2106 4SM -FZDZSN
     FM211000 VRB03KT 2SM BR OVC015
     FM211500 18006KT 5SM BR OVC015=



000
FTUS43 KGRR 210200 AAA
TAFJXN
TAF AMD
KJXN 210203Z 2102/2124 VRB03KT 6SM -SN BKN035
      TEMPO 2104/2106 4SM -FZDZSN OVC015
     FM210600 19003KT 4SM BR OVC015
     FM211800 19007KT P6SM OVC050=



000
FTUS43 KGRR 210200 AAA
TAFLAN
TAF AMD
KLAN 210202Z 2102/2124 VRB04KT P6SM BKN100
     FM210300 VRB03KT 5SM -SN BKN025
      TEMPO 2103/2106 4SM -FZDZSN
     FM210600 19003KT 4SM BR OVC015
     FM211800 19007KT P6SM OVC050=



000
FTUS43 KGRR 210200 AAA
TAFAZO
TAF AMD
KAZO 210201Z 2102/2124 VRB04KT 6SM -SN HZ OVC015
      TEMPO 2102/2106 4SM -FZDZSN OVC006
     FM211000 VRB03KT 2SM BR OVC015
     FM211500 18006KT 5SM BR OVC015=



000
FTUS43 KGRR 202300
TAFGRR
TAF
KGRR 202340Z 2100/2124 VRB04KT 5SM -SN BR OVC025
      TEMPO 2100/2104 4SM -FZDZSN
     FM210600 20003KT 4SM BR OVC009
     FM211500 17008KT 4SM BR OVC015=



000
FTUS43 KGRR 202300
TAFJXN
TAF
KJXN 202340Z 2100/2124 VRB03KT 5SM -SN BKN025
      TEMPO 2102/2106 4SM -FZDZSN OVC015
     FM210600 19003KT 4SM BR OVC015
     FM211800 19007KT P6SM OVC050=



000
FTUS43 KGRR 202300
TAFLAN
TAF
KLAN 202340Z 2100/2124 VRB04KT P6SM BKN100
     FM210100 VRB03KT 5SM -SN BKN025
      TEMPO 2101/2105 4SM -FZDZSN
     FM210600 19003KT 4SM BR OVC015
     FM211800 19007KT P6SM OVC050=



000
FTUS43 KGRR 202300
TAFBTL
TAF
KBTL 202340Z 2100/2124 VRB04KT 6SM -SN HZ OVC025
      TEMPO 2100/2104 4SM -FZDZSN
     FM211000 VRB03KT 2SM BR OVC015
     FM211500 18006KT 5SM BR OVC015=



000
FTUS43 KGRR 202300
TAFMKG
TAF
KMKG 202340Z 2100/2124 12005KT 6SM -SN HZ OVC015
      TEMPO 2100/2104 4SM -FZDZSN
     FM210600 20003KT 4SM BR OVC009
     FM211500 17008KT 4SM BR OVC015=



000
FTUS43 KGRR 202300
TAFAZO
TAF
KAZO 202340Z 2100/2124 VRB04KT 6SM -SN HZ OVC025
      TEMPO 2100/2104 4SM -FZDZSN
     FM211000 VRB03KT 2SM BR OVC015
     FM211500 18006KT 5SM BR OVC015=



000
FTUS43 KGRR 202200 AAB
TAFLAN
TAF AMD
KLAN 202235Z 2023/2118 VRB04KT P6SM BKN100
     FM210000 VRB03KT P6SM BKN025
     FM210600 19003KT 4SM BR OVC015=



000
FTUS43 KGRR 202200 AAB
TAFGRR
TAF AMD
KGRR 202216Z 2022/2118 VRB04KT P6SM OVC025
      TEMPO 2022/2024 4SM -SN BR
     FM210400 19003KT 4SM BR OVC015=



000
FTUS43 KGRR 202100 AAA
TAFGRR
TAF AMD
KGRR 202119Z 2021/2118 VRB04KT P6SM OVC025
     FM210400 19003KT 4SM BR OVC015=



000
FTUS43 KGRR 202000 AAA
TAFLAN
TAF AMD
KLAN 202004Z 2020/2118 VRB04KT P6SM OVC025
     FM210600 19003KT 4SM BR OVC015=



000
FTUS43 KGRR 202000 AAA
TAFMKG
TAF AMD
KMKG 202003Z 2020/2118 12005KT 6SM -SN HZ OVC015
     FM210400 19003KT 4SM BR OVC015=



000
FTUS43 KGRR 202000 AAA
TAFAZO
TAF AMD
KAZO 202003Z 2020/2118 VRB04KT 6SM HZ OVC025
     FM210400 19003KT 4SM BR OVC015
     FM211000 VRB03KT 2SM BR OVC015
     FM211500 18006KT 5SM BR OVC015=



000
FTUS43 KGRR 201700 RRA
TAFGRR
TAF
KGRR 201745Z 2018/2118 15004KT P6SM SCT030 OVC100
     FM202300 VRB04KT 6SM BR OVC025
     FM210400 19003KT 4SM BR OVC015=



000
FTUS43 KGRR 201700 RRA
TAFJXN
TAF
KJXN 201745Z 2018/2118 VRB04KT P6SM OVC025
     FM210500 VRB03KT 4SM BR OVC015=



000
FTUS43 KGRR 201700 RRA
TAFMKG
TAF
KMKG 201745Z 2018/2118 12005KT 6SM HZ OVC025
     FM210400 19003KT 4SM BR OVC015=



000
FTUS43 KGRR 201700 RRA
TAFBTL
TAF
KBTL 201745Z 2018/2118 18004KT P6SM SCT020
     FM210100 VRB04KT 5SM BR OVC025
     FM211000 VRB03KT 3SM BR OVC015=



000
FTUS43 KGRR 201700 RRA
TAFAZO
TAF
KAZO 201745Z 2018/2118 19005KT 6SM HZ SCT030 OVC070
     FM202300 VRB04KT 6SM BR OVC025
     FM210400 19003KT 4SM BR OVC015
     FM211000 VRB03KT 2SM BR OVC015
     FM211500 18006KT 5SM BR OVC015=



000
FTUS43 KGRR 201700 RRA
TAFLAN
TAF
KLAN 201745Z 2018/2118 VRB04KT P6SM SCT015
     FM202300 VRB04KT 6SM BR OVC025
     FM210600 19003KT 4SM BR OVC015=



000
FTUS43 KGRR 201100
TAFAZO
TAF
KAZO 201140Z 2012/2112 00000KT 4SM BR SCT025
     FM201400 16004KT P6SM BKN025
     FM210200 00000KT 4SM BR OVC015=



000
FTUS43 KGRR 201100
TAFGRR
TAF
KGRR 201140Z 2012/2112 00000KT P6SM SCT025
     FM201800 16004KT P6SM BKN025
     FM210200 00000KT 4SM BR OVC015=



000
FTUS43 KGRR 201100
TAFJXN
TAF
KJXN 201140Z 2012/2112 VRB03KT P6SM BKN021
     FM210300 20003KT 6SM BR OVC030=



000
FTUS43 KGRR 201100
TAFLAN
TAF
KLAN 201140Z 2012/2112 VRB03KT 6SM BR SCT025
     FM201500 20003KT P6SM BKN025
     FM210300 20003KT 4SM BR OVC025=



000
FTUS43 KGRR 201100
TAFMKG
TAF
KMKG 201140Z 2012/2112 00000KT P6SM SCT025
     FM201500 15004KT P6SM BKN025
     FM210200 VRB03KT 4SM BR OVC015=



000
FTUS43 KGRR 201100
TAFBTL
TAF
KBTL 201140Z 2012/2112 15004KT 6SM BR BKN025
     FM210200 00000KT 4SM BR OVC015=



000
FTUS43 KGRR 200500
TAFLAN
TAF
KLAN 200540Z 2006/2106 VRB03KT 6SM BR SCT025
     FM201800 20003KT P6SM SCT025 OVC100
     FM210300 20003KT 6SM BR OVC025=



000
FTUS43 KGRR 200500
TAFMKG
TAF
KMKG 200540Z 2006/2106 00000KT P6SM FEW025
     FM201800 16004KT P6SM BKN025
     FM210200 VRB03KT 4SM BR OVC010=



000
FTUS43 KGRR 200500
TAFAZO
TAF
KAZO 200540Z 2006/2106 00000KT P6SM FEW200
      TEMPO 2009/2013 4SM BR SCT025
     FM201800 16004KT P6SM SCT025
     FM202200 VRB03KT P6SM BKN025
     FM210200 00000KT 4SM BR OVC010=



000
FTUS43 KGRR 200500
TAFGRR
TAF
KGRR 200540Z 2006/2106 00000KT P6SM FEW200
     FM201800 16004KT P6SM SCT025
     FM202200 VRB03KT P6SM BKN025
     FM210200 00000KT 4SM BR OVC010=



000
FTUS43 KGRR 200500
TAFBTL
TAF
KBTL 200540Z 2006/2106 VRB03KT P6SM SCT025
      TEMPO 2006/2010 BKN025
     FM210200 00000KT 4SM BR OVC010=



000
FTUS43 KGRR 200500
TAFJXN
TAF
KJXN 200540Z 2006/2106 VRB03KT P6SM BKN022
     FM210300 20003KT 6SM BR OVC025=



000
FTUS43 KGRR 200400 AAB
TAFBTL
TAF AMD
KBTL 200405Z 2004/2024 VRB03KT P6SM SKC
     FM200600 VRB03KT P6SM OVC025
     FM200800 VRB02KT P6SM OVC010
     FM201800 20003KT P6SM OVC100=



000
FTUS43 KGRR 200400 AAB
TAFBTL
TAF AMD
KBTL 200405Z 2004/2024 VRB03KT P6SM SKC
     FM200600 VRB03KT P6SM OVC025
     FM200800 VRB02KT P6SM OVC010
     FM201800 20003KT P6SM OVC100=



000
FTUS43 KGRR 200400 AAB
TAFJXN
TAF AMD
KJXN 200404Z 2004/2024 VRB03KT P6SM BKN022
     FM200700 VRB02KT P6SM OVC010
     FM201800 20003KT P6SM OVC100=



000
FTUS43 KGRR 200400 AAB
TAFAZO
TAF AMD
KAZO 200404Z 2004/2024 VRB03KT P6SM SKC
     FM200600 VRB03KT P6SM OVC025
     FM200900 VRB02KT P6SM OVC010
     FM201800 20003KT P6SM OVC100=



000
FTUS43 KGRR 200400 AAB
TAFAZO
TAF AMD
KAZO 200404Z 2004/2024 VRB03KT P6SM SKC
     FM200600 VRB03KT P6SM OVC025
     FM200900 VRB02KT P6SM OVC010
     FM201800 20003KT P6SM OVC100=



000
FTUS43 KGRR 200200 AAA
TAFMKG
TAF AMD
KMKG 200230Z 2003/2024 02004KT P6SM SCT025
     FM200500 00000KT P6SM BKN025
     FM201200 00000KT 4SM BR OVC010=



000
FTUS43 KGRR 200200 AAA
TAFLAN
TAF AMD
KLAN 200230Z 2003/2024 VRB03KT P6SM SCT025
     FM200500 VRB03KT P6SM OVC025
     FM200800 VRB02KT P6SM OVC010
     FM201800 20003KT P6SM OVC100=



000
FTUS43 KGRR 200200 AAA
TAFGRR
TAF AMD
KGRR 200229Z 2002/2024 VRB03KT P6SM SCT022
     FM200500 VRB03KT P6SM BKN025
     FM201200 VRB02KT P6SM OVC010
     FM201800 20003KT P6SM OVC100=



000
FTUS43 KGRR 200200 AAA
TAFJXN
TAF AMD
KJXN 200229Z 2002/2024 VRB03KT P6SM SCT015
     FM200700 VRB02KT P6SM OVC010
     FM201800 20003KT P6SM OVC100=



000
FTUS43 KGRR 200200 AAA
TAFAZO
TAF AMD
KAZO 200228Z 2002/2024 VRB03KT P6SM SCT035
     FM200400 VRB03KT P6SM OVC025
     FM200700 VRB02KT P6SM OVC010
     FM201800 20003KT P6SM OVC100=



000
FTUS43 KGRR 200200 AAA
TAFBTL
TAF AMD
KBTL 200228Z 2002/2024 VRB03KT P6SM SCT035
     FM200400 VRB03KT P6SM OVC025
     FM200700 VRB02KT P6SM OVC010
     FM201800 20003KT P6SM OVC100=



000
FTUS43 KGRR 192300
TAFBTL
TAF
KBTL 192340Z 2000/2024 VRB03KT P6SM BKN035
     FM200200 VRB03KT P6SM OVC025
     FM200600 VRB02KT P6SM OVC010
     FM201800 20003KT P6SM OVC100=



000
FTUS43 KGRR 192300
TAFAZO
TAF
KAZO 192340Z 2000/2024 VRB03KT P6SM BKN035
     FM200200 VRB03KT P6SM OVC025
     FM200600 VRB02KT P6SM OVC010
     FM201800 20003KT P6SM OVC100=



000
FTUS43 KGRR 192300
TAFLAN
TAF
KLAN 192340Z 2000/2024 VRB03KT P6SM SCT025
     FM200300 VRB03KT P6SM OVC025
     FM200800 VRB02KT P6SM OVC010
     FM201800 20003KT P6SM OVC100=



000
FTUS43 KGRR 192300
TAFMKG
TAF
KMKG 192340Z 2000/2024 02004KT P6SM SCT025
     FM200300 00000KT P6SM BKN025
     FM201200 00000KT 4SM BR OVC010=



000
FTUS43 KGRR 192300
TAFGRR
TAF
KGRR 192340Z 2000/2024 VRB03KT P6SM SCT022
     FM200300 VRB03KT P6SM BKN025
     FM201200 VRB02KT P6SM OVC010
     FM201800 20003KT P6SM OVC100=



000
FTUS43 KGRR 192300
TAFJXN
TAF
KJXN 192340Z 2000/2024 VRB03KT P6SM BKN015
      TEMPO 2002/2004 SCT015
     FM200800 VRB02KT P6SM OVC010
     FM201800 20003KT P6SM OVC100=



000
FTUS43 KGRR 192000 AAB
TAFLAN
TAF AMD
KLAN 192045Z 1921/2018 VRB03KT P6SM SCT025
      TEMPO 1922/1924 BKN025
     FM200000 VRB03KT P6SM OVC015
     FM200800 VRB02KT P6SM OVC010=



000
FTUS43 KGRR 192000 AAA
TAFBTL
TAF AMD
KBTL 192044Z 1921/2018 VRB03KT P6SM BKN025
      TEMPO 1921/1923 SCT025
     FM200600 VRB02KT P6SM OVC010=



000
FTUS43 KGRR 192000 AAB
TAFAZO
TAF AMD
KAZO 192042Z 1921/2018 VRB03KT P6SM SCT025
     FM192300 VRB03KT P6SM OVC015
     FM200600 VRB02KT P6SM OVC010=



000
FTUS43 KGRR 192000 AAA
TAFGRR
TAF AMD
KGRR 192041Z 1921/2018 VRB03KT P6SM SCT022
     FM192300 VRB03KT P6SM BKN018
     FM201200 VRB02KT P6SM OVC010=



000
FTUS43 KGRR 191800 AAA
TAFLAN
TAF AMD
KLAN 191832Z 1919/2018 VRB03KT P6SM BKN015
      TEMPO 1919/1921 SCT015
     FM200000 VRB03KT P6SM OVC015
     FM200800 VRB02KT P6SM OVC010=



000
FTUS43 KGRR 191800 AAA
TAFAZO
TAF AMD
KAZO 191830Z 1919/2018 VRB03KT P6SM BKN025
      TEMPO 1919/1921 SCT025
     FM192100 VRB03KT P6SM OVC015
     FM200600 VRB02KT P6SM OVC010=



000
FTUS43 KGRR 191700 RRA
TAFBTL
TAF
KBTL 191741Z 1918/2018 VRB03KT P6SM BKN015
     FM200600 VRB02KT P6SM OVC010=



000
FTUS43 KGRR 191700 RRA
TAFGRR
TAF
KGRR 191741Z 1918/2018 VRB03KT P6SM SCT019
     FM192100 VRB03KT P6SM BKN018
     FM201200 VRB02KT P6SM OVC010=



000
FTUS43 KGRR 191700 RRA
TAFLAN
TAF
KLAN 191741Z 1918/2018 VRB03KT P6SM BKN016
     FM200000 VRB03KT P6SM OVC015
     FM200800 VRB02KT P6SM OVC010=



000
FTUS43 KGRR 191700 RRA
TAFAZO
TAF
KAZO 191741Z 1918/2018 VRB03KT P6SM BKN020
     FM192100 VRB03KT P6SM OVC015
     FM200600 VRB02KT P6SM OVC010=



000
FTUS43 KGRR 191700 RRA
TAFJXN
TAF
KJXN 191741Z 1918/2018 VRB03KT P6SM BKN013
     FM200800 VRB02KT P6SM OVC010=



000
FTUS43 KGRR 191700 RRA
TAFMKG
TAF
KMKG 191741Z 1918/2018 02004KT P6SM SCT025
     FM200300 00000KT P6SM BKN015
     FM201200 00000KT P6SM BKN010=



000
FTUS43 KGRR 191500 AAB
TAFBTL
TAF AMD
KBTL 191508Z 1915/2012 02004KT P6SM BKN009 OVC015
     FM191700 36005KT P6SM SCT015
     FM200600 18002KT 5SM BR BKN015=



000
FTUS43 KGRR 191400 AAA
TAFLAN
TAF AMD
KLAN 191415Z 1914/2012 02005KT P6SM OVC020
     FM191700 34003KT P6SM SCT025
     FM201000 00000KT P6SM BKN025=



000
FTUS43 KGRR 191400 AAA
TAFBTL
TAF AMD
KBTL 191414Z 1914/2012 36004KT P6SM BKN009 OVC014
     FM191500 36005KT P6SM BKN014
     FM191600 36005KT P6SM SCT014
     FM200600 18002KT 5SM BR BKN015=



000
FTUS43 KGRR 191400 AAA
TAFGRR
TAF AMD
KGRR 191409Z 1914/2012 02005KT P6SM BKN019
     FM191500 36004KT P6SM SCT020
     FM200800 00000KT P6SM BKN025=



000
FTUS43 KGRR 191100
TAFJXN
TAF
KJXN 191140Z 1912/2012 01005KT P6SM OVC007
     FM191300 33003KT P6SM OVC012
     FM191800 33003KT P6SM BKN020=



000
FTUS43 KGRR 191100
TAFMKG
TAF
KMKG 191140Z 1912/2012 02004KT P6SM SCT025
     FM200600 00000KT P6SM BKN025=



000
FTUS43 KGRR 191100
TAFBTL
TAF
KBTL 191140Z 1912/2012 31007KT P6SM OVC012
     FM191400 32006KT P6SM SCT020
     FM200600 18002KT 5SM BR BKN015=



000
FTUS43 KGRR 191100
TAFGRR
TAF
KGRR 191140Z 1912/2012 32005KT P6SM BKN019
     FM191300 36004KT P6SM SCT025
     FM200800 00000KT P6SM BKN025=



000
FTUS43 KGRR 191100
TAFLAN
TAF
KLAN 191140Z 1912/2012 02005KT P6SM OVC020
     FM191400 34003KT P6SM SCT025
     FM201000 00000KT P6SM BKN025=



000
FTUS43 KGRR 191100
TAFAZO
TAF
KAZO 191140Z 1912/2012 32006KT P6SM SCT020
     FM200600 18002KT 5SM BR BKN015=



000
FTUS43 KGRR 190900 AAA
TAFLAN
TAF AMD
KLAN 190902Z 1909/2006 02005KT P6SM OVC015
     FM191400 34003KT P6SM SCT025=



000
FTUS43 KGRR 190800 AAA
TAFAZO
TAF AMD
KAZO 190859Z 1909/2006 27005KT 6SM BR BKN007 OVC012
     FM191000 32003KT P6SM BKN012
     FM191400 33003KT P6SM BKN025
     FM191700 33003KT P6SM SCT025=



000
FTUS43 KGRR 190800 AAA
TAFJXN
TAF AMD
KJXN 190849Z 1909/2006 28003KT 4SM BR OVC006
     FM191100 33003KT P6SM OVC012
     FM191500 34003KT P6SM OVC025
     FM191800 34003KT P6SM SCT025=



000
FTUS43 KGRR 190800 AAA
TAFBTL
TAF AMD
KBTL 190847Z 1909/2006 27005KT 5SM BR OVC005
     FM191030 32003KT P6SM OVC012
     FM191500 33003KT P6SM OVC025
     FM191800 VRB03KT P6SM SCT025=



000
FTUS43 KGRR 190500 RRA
TAFBTL
TAF
KBTL 190542Z 1906/2006 27005KT 5SM BR SCT008 OVC015
      TEMPO 1906/1908 3SM -FZDZSN BR BKN008
     FM190800 32004KT P6SM OVC025
     FM191200 VRB03KT P6SM BKN040
     FM191600 34003KT P6SM SCT040=



000
FTUS43 KGRR 190500 RRA
TAFMKG
TAF
KMKG 190542Z 1906/2006 01005KT P6SM SCT025=



000
FTUS43 KGRR 190500 RRA
TAFGRR
TAF
KGRR 190542Z 1906/2006 36005KT P6SM OVC018
     FM191200 VRB03KT P6SM SCT025=



000
FTUS43 KGRR 190500 RRA
TAFAZO
TAF
KAZO 190542Z 1906/2006 27005KT 5SM BR SCT008 OVC015
      TEMPO 1906/1908 3SM -FZDZSN BR BKN008
     FM190800 32004KT P6SM OVC025
     FM191200 VRB03KT P6SM BKN040
     FM191600 34003KT P6SM SCT040=



000
FTUS43 KGRR 190500 RRA
TAFLAN
TAF
KLAN 190542Z 1906/2006 01006KT 6SM BR SCT008 OVC015
      TEMPO 1906/1910 4SM BR BKN008
     FM191000 36003KT P6SM OVC018
     FM191200 VRB03KT P6SM SCT040=



000
FTUS43 KGRR 190500 RRA
TAFJXN
TAF
KJXN 190542Z 1906/2006 27005KT 4SM BR OVC006
      TEMPO 1906/1910 2SM -FZDZSN BR
     FM191000 32004KT P6SM OVC018
     FM191200 VRB03KT P6SM BKN025
     FM191600 34003KT P6SM SCT040=



000
FTUS43 KGRR 190300 AAA
TAFJXN
TAF AMD
KJXN 190352Z 1904/1924 27005KT P6SM SCT008 OVC015
      TEMPO 1904/1906 4SM -FZDZSN BR OVC008
     FM190800 32004KT P6SM OVC025
     FM191100 VRB03KT P6SM BKN040
     FM191600 34003KT P6SM SCT040=



000
FTUS43 KGRR 190300 AAA
TAFJXN
TAF AMD
KJXN 190352Z 1904/1924 27005KT P6SM SCT008 OVC015
      TEMPO 1904/1906 4SM -FZDZSN BR OVC008
     FM190800 32004KT P6SM OVC025
     FM191100 VRB03KT P6SM BKN040
     FM191600 34003KT P6SM SCT040=



000
FTUS43 KGRR 190300 AAA
TAFAZO
TAF AMD
KAZO 190303Z 1903/1924 27005KT P6SM SCT008 OVC015
      TEMPO 1903/1905 4SM -FZDZSN BR OVC008
     FM190800 32004KT P6SM OVC025
     FM191100 VRB03KT P6SM BKN040
     FM191600 34003KT P6SM SCT040=



000
FTUS43 KGRR 190300 AAB
TAFLAN
TAF AMD
KLAN 190303Z 1903/1924 01006KT P6SM SCT008 OVC015
     FM190500 36003KT P6SM BKN025
     FM190600 36003KT P6SM BKN040
     FM191100 VRB03KT P6SM SCT040=



000
FTUS43 KGRR 190300 AAA
TAFBTL
TAF AMD
KBTL 190302Z 1903/1924 27005KT P6SM SCT008 OVC015
      TEMPO 1903/1905 4SM -FZDZSN BR OVC008
     FM190800 32004KT P6SM OVC025
     FM191100 VRB03KT P6SM BKN040
     FM191600 34003KT P6SM SCT040=



000
FTUS43 KGRR 190300 AAA
TAFMKG
TAF AMD
KMKG 190300Z 1903/1924 34006KT P6SM BKN015
     FM190340 36003KT P6SM BKN040
     FM191100 VRB03KT P6SM SCT040=



000
FTUS43 KGRR 190000 AAA
TAFLAN
TAF AMD
KLAN 190011Z 1900/1924 VRB03KT P6SM -FZDZSN BKN009
     FM190100 01006KT P6SM SCT008 OVC015
     FM190300 36003KT P6SM BKN025
     FM190600 36003KT P6SM BKN040
     FM191100 VRB03KT P6SM SCT040=



000
FTUS43 KGRR 182300
TAFBTL
TAF
KBTL 182325Z 1900/1924 27005KT P6SM SCT008 OVC015
      TEMPO 1900/1903 4SM -FZDZSN BR OVC008
     FM190800 32004KT P6SM OVC025
     FM191100 VRB03KT P6SM BKN040
     FM191600 34003KT P6SM SCT040=



000
FTUS43 KGRR 182300
TAFLAN
TAF
KLAN 182325Z 1900/1924 01006KT P6SM SCT008 OVC015
     FM190300 36003KT P6SM BKN025
     FM190600 36003KT P6SM BKN040
     FM191100 VRB03KT P6SM SCT040=



000
FTUS43 KGRR 182300
TAFMKG
TAF
KMKG 182325Z 1900/1924 01006KT P6SM BKN025
     FM190300 36003KT P6SM BKN040
     FM191100 VRB03KT P6SM SCT040=



000
FTUS43 KGRR 182300
TAFAZO
TAF
KAZO 182325Z 1900/1924 27005KT P6SM SCT008 OVC015
      TEMPO 1900/1903 4SM -FZDZSN BR OVC008
     FM190800 32004KT P6SM OVC025
     FM191100 VRB03KT P6SM BKN040
     FM191600 34003KT P6SM SCT040=



000
FTUS43 KGRR 182300
TAFJXN
TAF
KJXN 182325Z 1900/1924 26005KT 5SM -FZDZSN BR OVC008
     FM190200 27005KT P6SM SCT008 OVC015
      TEMPO 1902/1904 4SM -FZDZSN BR OVC008
     FM190800 32004KT P6SM OVC025
     FM191100 VRB03KT P6SM BKN040
     FM191600 34003KT P6SM SCT040=



000
FTUS43 KGRR 182300
TAFGRR
TAF
KGRR 182325Z 1900/1924 01006KT P6SM SCT008 OVC015
     FM190300 36003KT P6SM BKN025
     FM190600 36003KT P6SM BKN040
     FM191100 VRB03KT P6SM SCT040=



000
FTUS43 KGRR 182300 AAA
TAFGRR
TAF AMD
KGRR 182302Z 1823/1918 24006KT P6SM OVC015
      TEMPO 1823/1824 4SM -FZDZ BR OVC009
     FM190500 34004KT P6SM BKN040
     FM191200 VRB03KT P6SM SCT040=



000
FTUS43 KGRR 182300 AAB
TAFLAN
TAF AMD
KLAN 182301Z 1823/1918 29003KT P6SM SCT008 OVC015
      TEMPO 1823/1824 4SM -FZDZ BR OVC008
     FM190400 32004KT P6SM OVC015
     FM190800 VRB03KT P6SM BKN040
     FM191300 VRB03KT P6SM SCT040=



000
FTUS43 KGRR 182200 AAB
TAFGRR
TAF AMD
KGRR 182202Z 1822/1918 30006KT P6SM OVC025
      TEMPO 1822/1823 4SM -FZDZ BR OVC015
     FM190500 34004KT P6SM BKN040
     FM191200 VRB03KT P6SM SCT040=



000
FTUS43 KGRR 182100 AAB
TAFBTL
TAF AMD
KBTL 182123Z 1821/1918 27005KT P6SM OVC015
      TEMPO 1821/1824 4SM -FZDZ BR OVC009
     FM190700 34003KT P6SM OVC025
     FM191000 VRB03KT P6SM BKN040
     FM191600 VRB03KT P6SM SCT040=



000
FTUS43 KGRR 182100 AAA
TAFLAN
TAF AMD
KLAN 182120Z 1821/1918 29003KT P6SM SCT008 OVC015
      TEMPO 1821/1823 4SM -FZDZ BR OVC008
     FM190400 32004KT P6SM OVC015
     FM190800 VRB03KT P6SM BKN040
     FM191300 VRB03KT P6SM SCT040=



000
FTUS43 KGRR 182100 AAA
TAFAZO
TAF AMD
KAZO 182119Z 1821/1918 28006KT P6SM OVC025
      TEMPO 1821/1824 4SM -FZDZ BR OVC015
     FM190700 33003KT P6SM OVC025
     FM191000 VRB03KT P6SM BKN040
     FM191700 VRB03KT P6SM SCT040=



000
FTUS43 KGRR 182000 AAA
TAFJXN
TAF AMD
KJXN 182017Z 1820/1918 28005KT P6SM SCT008 OVC015
      TEMPO 1820/1824 4SM -FZDZ BR OVC008
     FM190800 32004KT P6SM OVC025
     FM191100 VRB03KT P6SM BKN040
     FM191600 34003KT P6SM SCT040=



000
FTUS43 KGRR 182000 AAA
TAFBTL
TAF AMD
KBTL 182016Z 1820/1918 27005KT P6SM OVC025
      TEMPO 1820/1824 4SM -FZDZ BR OVC015
     FM190700 34003KT P6SM OVC025
     FM191000 VRB03KT P6SM BKN040
     FM191600 VRB03KT P6SM SCT040=



000
FTUS43 KGRR 182000 AAA
TAFGRR
TAF AMD
KGRR 182014Z 1820/1918 30006KT P6SM OVC025
      TEMPO 1820/1822 4SM -FZDZ BR OVC015
     FM190500 34004KT P6SM BKN040
     FM191200 VRB03KT P6SM SCT040=



000
FTUS43 KGRR 181700
TAFLAN
TAF
KLAN 181740Z 1818/1918 29006KT P6SM SCT008 OVC015
      TEMPO 1818/1822 4SM -FZDZ BR OVC008
     FM190400 32004KT P6SM OVC015
     FM190800 VRB03KT P6SM BKN040
     FM191300 VRB03KT P6SM SCT040=



000
FTUS43 KGRR 181700
TAFGRR
TAF
KGRR 181740Z 1818/1918 30006KT P6SM SCT008 OVC015
      TEMPO 1818/1822 4SM -FZDZ BR OVC008
     FM190500 34004KT P6SM BKN040
     FM191200 VRB03KT P6SM SCT040=



000
FTUS43 KGRR 181700
TAFJXN
TAF
KJXN 181740Z 1818/1918 28006KT P6SM SCT008 OVC015
      TEMPO 1818/1822 4SM -FZDZ BR OVC008
     FM190800 32004KT P6SM OVC025
     FM191100 VRB03KT P6SM BKN040
     FM191600 34003KT P6SM SCT040=



000
FTUS43 KGRR 181700
TAFAZO
TAF
KAZO 181740Z 1818/1918 28006KT P6SM OVC025
      TEMPO 1818/1822 4SM -FZDZ BR OVC015
     FM190700 33003KT P6SM OVC025
     FM191000 VRB03KT P6SM BKN040
     FM191700 VRB03KT P6SM SCT040=



000
FTUS43 KGRR 181700
TAFMKG
TAF
KMKG 181740Z 1818/1918 33006KT P6SM SCT008 OVC025
      TEMPO 1818/1821 4SM -FZDZ BR OVC015
     FM190200 36003KT P6SM BKN040
     FM191100 VRB03KT P6SM SCT040=



000
FTUS43 KGRR 181700
TAFBTL
TAF
KBTL 181740Z 1818/1918 29006KT P6SM OVC025
      TEMPO 1818/1822 4SM -FZDZ BR OVC015
     FM190700 34003KT P6SM OVC025
     FM191000 VRB03KT P6SM BKN040
     FM191600 VRB03KT P6SM SCT040=



000
FTUS43 KGRR 181600 AAB
TAFJXN
TAF AMD
KJXN 181609Z 1816/1912 28006KT P6SM OVC015
      TEMPO 1816/1819 3SM -FZDZ BR OVC008
     FM181900 28006KT P6SM OVC022
     FM190600 32003KT P6SM BKN040=



000
FTUS43 KGRR 181600 AAB
TAFLAN
TAF AMD
KLAN 181608Z 1816/1912 28007KT P6SM OVC015
      TEMPO 1816/1819 3SM -FZDZ BR OVC008
     FM181900 30005KT P6SM OVC022
     FM190600 32003KT P6SM BKN040=



000
FTUS43 KGRR 181600 AAB
TAFGRR
TAF AMD
KGRR 181607Z 1816/1912 28006KT P6SM OVC015
      TEMPO 1816/1819 3SM -FZDZ BR OVC008
     FM181900 30006KT P6SM OVC025
     FM190600 34003KT P6SM BKN040=



000
FTUS43 KGRR 181600 AAA
TAFMKG
TAF AMD
KMKG 181603Z 1816/1912 34006KT P6SM -SN OVC015
      TEMPO 1816/1820 4SM BR
     FM182000 33005KT P6SM OVC025
     FM190600 35003KT P6SM BKN040=



000
FTUS43 KGRR 181500 AAA
TAFJXN
TAF AMD
KJXN 181523Z 1815/1912 28007KT P6SM OVC012
     FM181900 28006KT P6SM OVC022
     FM190600 32003KT P6SM BKN040=



000
FTUS43 KGRR 181500 AAA
TAFLAN
TAF AMD
KLAN 181522Z 1815/1912 29006KT P6SM OVC011
     FM181900 30005KT P6SM OVC022
     FM190600 32003KT P6SM BKN040=



000
FTUS43 KGRR 181500 AAA
TAFGRR
TAF AMD
KGRR 181520Z 1815/1912 28006KT P6SM OVC015
     FM181900 30006KT P6SM OVC025
     FM190600 34003KT P6SM BKN040=



000
FTUS43 KGRR 181100
TAFGRR
TAF
KGRR 181139Z 1812/1912 29007KT P6SM OVC018
     FM181500 29007KT P6SM OVC025
     FM190600 34003KT P6SM BKN040=



000
FTUS43 KGRR 181100
TAFLAN
TAF
KLAN 181139Z 1812/1912 29006KT P6SM OVC015
     FM181500 29006KT P6SM OVC025
     FM190600 32003KT P6SM BKN040=



000
FTUS43 KGRR 181100
TAFAZO
TAF
KAZO 181139Z 1812/1912 28006KT P6SM OVC018
     FM181500 29007KT P6SM OVC025
     FM190600 31003KT P6SM BKN040=



000
FTUS43 KGRR 181100
TAFMKG
TAF
KMKG 181139Z 1812/1912 31006KT P6SM -SN OVC025
     FM190600 35003KT P6SM BKN040=



000
FTUS43 KGRR 181100
TAFJXN
TAF
KJXN 181139Z 1812/1912 29006KT P6SM OVC025
     FM190600 32003KT P6SM BKN040=



000
FTUS43 KGRR 181100
TAFBTL
TAF
KBTL 181139Z 1812/1912 28006KT P6SM OVC019
     FM181500 29007KT P6SM OVC025
     FM190600 31003KT P6SM BKN040=



    US Dept of Commerce
    National Oceanic and Atmospheric Administration
    National Weather Service
    1325 East West Highway
    Silver Spring, MD 20910
    Page Author: NWS Internet Services Team
Disclaimer
Information Quality
Credits
Glossary
Privacy Policy
Freedom of Information Act (FOIA)
About Us
Career Opportunities